Time;durP1;ratioP1;P1;durP2;ratioP2;P2;SDS_P1;SDS_P2;PMS_P1;PMS_P2;Temp;Humidity;BMP_temperature;BMP_pressure;BME280_temperature;BME280_humidity;BME280_pressure;Samples;Min_cycle;Max_cycle;Signal;HPM_P1;HPM_P2
2023/07/21 00:01:39;;;;;;;8.55;7.80;;;;;;;14.91;100.00;100741.00;6108507;23;20064;-67
2023/07/21 00:04:06;;;;;;;8.88;8.07;;;;;;;14.93;100.00;100751.44;6110107;23;20029;-67
2023/07/21 00:06:32;;;;;;;9.88;8.88;;;;;;;14.49;100.00;100684.88;6111937;23;20080;-67
2023/07/21 00:08:59;;;;;;;8.05;7.45;;;;;;;14.78;100.00;100753.38;6110732;23;20048;-68
2023/07/21 00:11:25;;;;;;;8.82;8.02;;;;;;;14.50;100.00;100705.03;6115548;23;20044;-67
2023/07/21 00:13:52;;;;;;;9.00;8.10;;;;;;;14.78;100.00;100749.91;6089276;23;20404;-69
2023/07/21 00:16:18;;;;;;;9.30;8.50;;;;;;;14.70;100.00;100747.78;6113130;23;20044;-67
2023/07/21 00:18:46;;;;;;;9.02;8.30;;;;;;;14.65;100.00;100749.88;6108672;23;20021;-68
2023/07/21 00:21:12;;;;;;;8.48;7.78;;;;;;;14.51;100.00;100727.00;6113158;23;20021;-68
2023/07/21 00:23:39;;;;;;;8.93;8.13;;;;;;;13.06;100.00;100475.53;6084425;23;20559;-67
2023/07/21 00:26:07;;;;;;;9.77;8.77;;;;;;;14.61;100.00;100737.81;6109637;23;20427;-67
2023/07/21 00:28:33;;;;;;;9.23;8.40;;;;;;;14.81;100.00;100776.94;6083600;23;20098;-69
2023/07/21 00:30:59;;;;;;;10.82;8.38;;;;;;;14.79;100.00;100752.41;6088349;23;20595;-67
2023/07/21 00:33:26;;;;;;;9.38;8.40;;;;;;;14.87;100.00;100759.81;6112051;23;20022;-68
2023/07/21 00:35:52;;;;;;;10.05;9.02;;;;;;;14.40;100.00;100687.31;6081729;23;20596;-67
2023/07/21 00:38:21;;;;;;;10.98;8.77;;;;;;;14.80;100.00;100756.75;6113908;23;20081;-67
2023/07/21 00:40:47;;;;;;;9.25;8.32;;;;;;;14.46;100.00;100708.84;6107820;23;20044;-68
2023/07/21 00:43:15;;;;;;;9.50;8.60;;;;;;;14.72;100.00;100754.63;6114404;23;20025;-67
2023/07/21 00:45:41;;;;;;;9.10;8.30;;;;;;;14.41;100.00;100716.22;6110953;23;20016;-68
2023/07/21 00:48:09;;;;;;;8.77;7.95;;;;;;;14.62;100.00;100742.19;6108792;23;20032;-67
2023/07/21 00:50:48;;;;;;;8.30;7.50;;;;;;;14.26;100.00;100707.56;6113873;23;20033;-68
2023/07/21 00:53:14;;;;;;;9.68;8.77;;;;;;;14.17;100.00;100687.06;6113913;23;20081;-67
2023/07/21 00:55:41;;;;;;;9.07;8.18;;;;;;;14.10;100.00;100684.00;6113871;23;20045;-68
2023/07/21 00:58:11;;;;;;;9.23;8.43;;;;;;;14.53;100.00;100747.09;6111654;23;20025;-68
2023/07/21 01:00:39;;;;;;;11.35;8.77;;;;;;;14.49;100.00;100744.75;6108216;23;20037;-67
2023/07/21 01:03:06;;;;;;;9.02;8.23;;;;;;;14.50;100.00;100759.66;6084108;23;20057;-68
2023/07/21 01:05:36;;;;;;;8.52;7.80;;;;;;;14.01;100.00;100676.72;6109007;23;20033;-67
2023/07/21 01:08:07;;;;;;;9.80;8.93;;;;;;;14.40;100.00;100746.22;6080305;23;20029;-67
2023/07/21 01:10:36;;;;;;;9.60;8.32;;;;;;;14.34;100.00;100738.72;6108040;23;20057;-67
2023/07/21 01:13:03;;;;;;;8.73;7.95;;;;;;;14.38;100.00;100749.94;6108700;23;20019;-67
2023/07/21 01:15:30;;;;;;;9.68;8.43;;;;;;;14.27;100.00;100740.94;6113458;23;20033;-67
2023/07/21 01:17:58;;;;;;;8.82;8.13;;;;;;;14.36;100.00;100753.50;6080822;23;20019;-67
2023/07/21 01:20:27;;;;;;;10.85;9.43;;;;;;;14.34;100.00;100749.28;6113575;23;20452;-67
2023/07/21 01:23:23;;;;;;;10.15;9.25;;;;;;;14.31;100.00;100746.84;6088357;23;20450;-68
2023/07/21 01:25:51;;;;;;;9.55;8.63;;;;;;;14.30;100.00;100746.00;6061653;23;20757;-67
2023/07/21 01:28:19;;;;;;;9.45;8.55;;;;;;;14.27;100.00;100740.94;6105800;23;20542;-67
2023/07/21 01:30:48;;;;;;;9.20;8.40;;;;;;;14.05;100.00;100701.06;6112605;23;20005;-67
2023/07/21 01:33:20;;;;;;;11.57;8.50;;;;;;;14.35;100.00;100746.56;6111947;23;20045;-67
2023/07/21 01:35:48;;;;;;;8.25;7.55;;;;;;;14.30;100.00;100739.88;6107208;23;20093;-67
2023/07/21 01:38:18;;;;;;;8.75;7.95;;;;;;;14.40;100.00;100740.13;6112092;23;20029;-67
2023/07/21 01:40:46;;;;;;;8.50;7.68;;;;;;;14.42;100.00;100731.13;6107940;23;20149;-67
2023/07/21 01:43:14;;;;;;;9.10;8.15;;;;;;;14.44;100.00;100731.88;6106975;23;20018;-67
2023/07/21 01:45:41;;;;;;;8.88;8.07;;;;;;;14.46;100.00;100723.84;6111443;23;20073;-67
2023/07/21 01:48:10;;;;;;;9.27;8.38;;;;;;;14.33;100.00;100697.44;6090923;23;20517;-67
2023/07/21 01:50:39;;;;;;;10.60;9.50;;;;;;;14.14;100.00;100668.81;6115161;23;20409;-67
2023/07/21 01:53:12;;;;;;;10.45;8.80;;;;;;;14.39;100.00;100714.66;6111213;23;20033;-67
2023/07/21 01:55:46;;;;;;;10.75;9.70;;;;;;;14.36;100.00;100721.81;6113734;23;20067;-67
2023/07/21 01:58:14;;;;;;;9.48;8.68;;;;;;;14.33;100.00;100727.34;6115769;23;20100;-68
2023/07/21 02:00:43;;;;;;;11.35;10.13;;;;;;;13.83;100.00;100657.69;6113067;23;20027;-67
2023/07/21 02:03:18;;;;;;;10.25;8.93;;;;;;;14.16;100.00;100735.53;6081442;23;20101;-67
2023/07/21 02:05:46;;;;;;;11.10;9.65;;;;;;;14.02;100.00;100704.78;6092981;23;20036;-67
2023/07/21 02:08:13;;;;;;;10.60;9.38;;;;;;;14.14;100.00;100721.59;6107929;23;20041;-67
2023/07/21 02:10:40;;;;;;;9.95;8.95;;;;;;;14.15;100.00;100723.25;6116346;23;20067;-67
2023/07/21 02:13:08;;;;;;;11.05;9.63;;;;;;;14.18;100.00;100725.72;6111861;23;20025;-67
2023/07/21 02:15:34;;;;;;;9.52;8.63;;;;;;;14.16;100.00;100724.97;6122274;23;20045;-68
2023/07/21 02:18:00;;;;;;;9.98;8.98;;;;;;;14.22;100.00;100727.19;6087625;23;20036;-68
2023/07/21 02:20:27;;;;;;;11.82;9.43;;;;;;;14.27;100.00;100725.09;6109479;23;20025;-67
2023/07/21 02:22:54;;;;;;;18.08;10.48;;;;;;;14.27;100.00;100732.16;6109623;23;21121;-67
2023/07/21 02:25:20;;;;;;;11.15;9.50;;;;;;;13.81;100.00;100634.97;6096087;23;20250;-67
2023/07/21 02:27:47;;;;;;;12.75;10.10;;;;;;;14.26;100.00;100702.28;6115065;23;20091;-67
2023/07/21 02:30:13;;;;;;;13.93;10.25;;;;;;;14.15;100.00;100681.03;6111430;23;20021;-67
2023/07/21 02:32:39;;;;;;;12.05;10.32;;;;;;;13.98;100.00;100678.72;6113904;23;20095;-66
2023/07/21 02:35:07;;;;;;;10.63;9.50;;;;;;;14.26;100.00;100726.03;6088408;23;20547;-67
2023/07/21 02:37:33;;;;;;;11.77;9.38;;;;;;;14.30;100.00;100727.53;6091984;23;20075;-67
2023/07/21 02:40:00;;;;;;;14.70;9.65;;;;;;;14.33;100.00;100729.97;6082510;23;20464;-67
2023/07/21 02:42:26;;;;;;;13.73;9.75;;;;;;;14.18;100.00;100703.75;6096928;23;20029;-67
2023/07/21 02:44:52;;;;;;;15.98;10.63;;;;;;;13.94;100.00;100668.34;6059915;23;20560;-68
2023/07/21 02:47:19;;;;;;;9.20;8.35;;;;;;;14.00;100.00;100672.38;6106208;23;20030;-67
2023/07/21 02:49:46;;;;;;;14.30;9.77;;;;;;;14.31;100.00;100726.59;6113762;23;20052;-67
2023/07/21 02:52:12;;;;;;;8.93;8.13;;;;;;;14.30;100.00;100724.88;6094150;23;20025;-67
2023/07/21 02:54:38;;;;;;;10.10;9.18;;;;;;;14.15;100.00;100694.22;6097387;23;20030;-67
2023/07/21 02:57:07;;;;;;;15.10;8.88;;;;;;;13.92;100.00;100651.78;6079157;23;20097;-67
2023/07/21 02:59:34;;;;;;;10.15;9.02;;;;;;;14.19;100.00;100694.88;6102590;23;20029;-67
2023/07/21 03:02:00;;;;;;;10.25;9.30;;;;;;;14.13;100.00;100691.72;6094829;23;20036;-67
2023/07/21 03:04:28;;;;;;;9.77;8.57;;;;;;;14.24;100.00;100708.63;6108117;23;20021;-68
2023/07/21 03:06:54;;;;;;;16.05;10.55;;;;;;;13.99;100.00;100664.56;6112646;23;20643;-70
2023/07/21 03:09:21;;;;;;;11.75;10.52;;;;;;;13.71;100.00;100626.81;6110540;23;20040;-68
2023/07/21 03:11:47;;;;;;;12.43;10.27;;;;;;;14.16;100.00;100695.94;6109851;23;20037;-68
2023/07/21 03:14:14;;;;;;;13.32;10.32;;;;;;;13.69;100.00;100620.81;6115209;23;20014;-67
2023/07/21 03:16:41;;;;;;;12.02;9.93;;;;;;;13.77;100.00;100651.00;6111696;23;20022;-68
2023/07/21 03:19:08;;;;;;;10.55;8.82;;;;;;;13.97;100.00;100685.75;6082347;23;20026;-67
2023/07/21 03:21:34;;;;;;;10.73;9.20;;;;;;;13.50;100.00;100637.00;6113639;23;20621;-69
2023/07/21 03:24:01;;;;;;;9.48;8.55;;;;;;;13.85;100.00;100676.03;6081316;23;20056;-69
2023/07/21 03:26:27;;;;;;;10.35;9.27;;;;;;;13.79;100.00;100674.66;6115197;23;20033;-67
2023/07/21 03:28:55;;;;;;;15.07;10.45;;;;;;;13.73;100.00;100657.44;6084389;23;20022;-67
2023/07/21 03:31:22;;;;;;;11.13;9.90;;;;;;;13.36;100.00;100596.56;6114155;23;20590;-68
2023/07/21 03:33:48;;;;;;;10.70;9.60;;;;;;;13.50;100.00;100611.47;6117374;23;20094;-67
2023/07/21 03:36:15;;;;;;;11.57;9.85;;;;;;;14.00;100.00;100692.63;6117360;23;20549;-68
2023/07/21 03:38:41;;;;;;;10.13;9.18;;;;;;;13.54;100.00;100623.50;6115384;23;20087;-68
2023/07/21 03:41:09;;;;;;;11.52;9.95;;;;;;;14.04;100.00;100705.53;6113354;23;20021;-68
2023/07/21 03:43:39;;;;;;;10.02;8.70;;;;;;;14.08;100.00;100716.72;6111502;23;20022;-68
2023/07/21 03:46:07;;;;;;;9.45;8.35;;;;;;;14.08;100.00;100719.34;6114064;23;20476;-68
2023/07/21 03:48:34;;;;;;;9.50;8.13;;;;;;;14.10;100.00;100707.75;6111227;23;20751;-68
2023/07/21 03:51:03;;;;;;;8.88;8.00;;;;;;;13.98;100.00;100687.47;6109701;23;20058;-68
2023/07/21 03:53:29;;;;;;;10.55;8.45;;;;;;;14.01;100.00;100700.47;6108708;23;20123;-68
2023/07/21 03:56:03;;;;;;;9.43;8.43;;;;;;;13.95;100.00;100683.25;6109100;23;20059;-68
2023/07/21 03:58:29;;;;;;;12.10;9.25;;;;;;;14.00;100.00;100695.28;6113281;23;20044;-67
2023/07/21 04:00:58;;;;;;;11.18;9.20;;;;;;;14.18;100.00;100719.59;6110005;23;20014;-67
2023/07/21 04:03:25;;;;;;;10.10;8.25;;;;;;;14.14;100.00;100709.22;6111505;23;20089;-69
2023/07/21 04:05:52;;;;;;;10.80;9.60;;;;;;;14.22;100.00;100713.16;6108970;23;20097;-68
2023/07/21 04:08:19;;;;;;;9.82;8.77;;;;;;;13.90;100.00;100643.13;6082766;23;20101;-68
2023/07/21 04:10:46;;;;;;;11.50;9.30;;;;;;;14.33;100.00;100703.56;6087172;23;20397;-68
2023/07/21 04:13:12;;;;;;;10.07;9.07;;;;;;;14.35;100.00;100708.72;6103458;23;20119;-68
2023/07/21 04:15:39;;;;;;;12.02;9.88;;;;;;;14.15;100.00;100668.72;6088517;23;20014;-68
2023/07/21 04:18:05;;;;;;;11.00;9.43;;;;;;;14.35;100.00;100685.84;6107062;23;20092;-72
2023/07/21 04:20:32;;;;;;;9.38;8.40;;;;;;;14.28;100.00;100676.63;6113494;23;20543;-68
2023/07/21 04:22:59;;;;;;;12.40;9.45;;;;;;;14.04;100.00;100626.34;6111900;23;20124;-68
2023/07/21 04:25:26;;;;;;;9.98;8.93;;;;;;;14.39;100.00;100685.59;6108904;23;20047;-69
2023/07/21 04:27:54;;;;;;;8.88;7.97;;;;;;;14.43;100.00;100684.44;6109532;23;20092;-69
2023/07/21 04:30:22;;;;;;;13.15;9.48;;;;;;;14.04;100.00;100621.06;6111808;23;20025;-69
2023/07/21 04:32:48;;;;;;;9.30;8.48;;;;;;;14.07;100.00;100601.53;6107586;23;20571;-69
2023/07/21 04:35:16;;;;;;;9.35;8.45;;;;;;;14.59;100.00;100671.91;6104852;23;20600;-69
2023/07/21 04:37:43;;;;;;;11.75;9.65;;;;;;;14.60;100.00;100662.19;6105464;23;20013;-69
2023/07/21 04:40:11;;;;;;;13.90;10.57;;;;;;;14.54;100.00;100652.88;6086464;23;20040;-68
2023/07/21 04:42:38;;;;;;;11.27;9.02;;;;;;;14.54;100.00;100659.00;6080209;23;20394;-68
2023/07/21 04:45:09;;;;;;;11.07;9.40;;;;;;;14.46;100.00;100642.00;6111329;23;20036;-68
2023/07/21 04:47:35;;;;;;;10.80;8.98;;;;;;;14.70;100.00;100663.25;6079803;23;20024;-68
2023/07/21 04:50:01;;;;;;;12.38;9.75;;;;;;;14.76;100.00;100670.75;6109349;23;20029;-70
2023/07/21 04:52:28;;;;;;;12.52;9.50;;;;;;;14.32;100.00;100606.81;6111854;23;20025;-69
2023/07/21 04:54:55;;;;;;;10.75;9.65;;;;;;;14.67;100.00;100666.09;6103933;23;20229;-69
2023/07/21 04:57:21;;;;;;;10.90;9.20;;;;;;;14.67;100.00;100655.53;6089240;23;20092;-68
2023/07/21 04:59:47;;;;;;;11.30;9.60;;;;;;;14.91;100.00;100677.59;6110736;23;20082;-68
2023/07/21 05:02:14;;;;;;;9.80;8.80;;;;;;;14.96;100.00;100648.19;6105234;23;20471;-69
2023/07/21 05:04:40;;;;;;;13.02;10.00;;;;;;;15.31;100.00;100672.06;6108052;23;20010;-68
2023/07/21 05:07:08;;;;;;;9.93;8.95;;;;;;;15.36;100.00;100661.19;6108741;23;20361;-68
2023/07/21 05:09:35;;;;;;;8.70;7.85;;;;;;;15.69;100.00;100659.63;6089126;23;20040;-68
2023/07/21 05:12:01;;;;;;;9.05;8.20;;;;;;;15.95;100.00;100660.38;6106056;23;20048;-68
2023/07/21 05:14:28;;;;;;;10.10;8.98;;;;;;;16.03;100.00;100649.19;6109484;23;20035;-67
2023/07/21 05:16:54;;;;;;;10.82;9.65;;;;;;;16.14;100.00;100641.28;6106331;23;20021;-68
2023/07/21 05:19:21;;;;;;;10.15;9.25;;;;;;;16.21;100.00;100623.13;6063691;23;20040;-68
2023/07/21 05:21:47;;;;;;;10.27;9.35;;;;;;;16.20;100.00;100621.44;6109411;23;20278;-68
2023/07/21 05:24:13;;;;;;;9.35;8.35;;;;;;;16.01;100.00;100588.44;6083863;23;20038;-68
2023/07/21 05:26:40;;;;;;;8.65;7.82;;;;;;;16.50;100.00;100631.47;6106090;23;20415;-68
2023/07/21 05:29:09;;;;;;;10.38;9.27;;;;;;;16.35;100.00;100618.44;6076023;23;20401;-69
2023/07/21 05:31:35;;;;;;;10.48;8.98;;;;;;;16.81;100.00;100623.75;6112576;23;20109;-68
2023/07/21 05:34:02;;;;;;;9.77;8.77;;;;;;;17.19;100.00;100622.50;6112208;23;20167;-68
2023/07/21 05:36:28;;;;;;;11.15;9.68;;;;;;;17.12;100.00;100563.81;6109156;23;20029;-69
2023/07/21 05:38:54;;;;;;;9.80;8.90;;;;;;;17.35;100.00;100586.63;6060212;23;20022;-68
2023/07/21 05:41:22;;;;;;;10.02;8.57;;;;;;;17.39;100.00;100573.94;6107843;23;20017;-69
2023/07/21 05:43:48;;;;;;;10.75;8.98;;;;;;;17.37;100.00;100575.06;6104623;23;20662;-69
2023/07/21 05:46:15;;;;;;;9.10;8.20;;;;;;;17.35;100.00;100578.66;6111022;23;19998;-69
2023/07/21 05:48:42;;;;;;;9.02;8.32;;;;;;;17.50;100.00;100575.69;6109262;23;20538;-70
2023/07/21 05:51:12;;;;;;;9.15;8.35;;;;;;;17.72;100.00;100588.00;6109537;23;20087;-68
2023/07/21 05:53:39;;;;;;;9.07;8.20;;;;;;;17.91;100.00;100572.25;6107557;23;20025;-70
2023/07/21 05:56:08;;;;;;;9.35;8.45;;;;;;;18.44;100.00;100562.44;6112389;23;20200;-69
2023/07/21 05:58:35;;;;;;;9.80;8.90;;;;;;;18.65;99.09;100526.00;6111867;23;20025;-68
2023/07/21 06:01:02;;;;;;;11.10;8.20;;;;;;;17.84;97.01;100470.22;6077030;23;20099;-68
2023/07/21 06:03:28;;;;;;;11.13;9.35;;;;;;;17.68;99.06;100506.97;6107930;23;20018;-70
2023/07/21 06:05:55;;;;;;;8.77;8.02;;;;;;;17.78;100.00;100537.09;6057732;23;20058;-68
2023/07/21 06:08:24;;;;;;;9.20;8.30;;;;;;;17.94;100.00;100539.28;6083831;23;20038;-68
2023/07/21 06:10:54;;;;;;;9.13;8.30;;;;;;;17.79;100.00;100472.41;6085482;23;20089;-69
2023/07/21 06:13:20;;;;;;;8.90;8.18;;;;;;;18.15;99.49;100512.69;6097847;23;20037;-69
2023/07/21 06:15:47;;;;;;;9.90;8.68;;;;;;;18.18;98.29;100509.78;6088458;23;20030;-69
2023/07/21 06:18:13;;;;;;;10.40;9.35;;;;;;;18.18;96.92;100490.34;6059223;23;20029;-68
2023/07/21 06:20:40;;;;;;;9.63;8.73;;;;;;;18.76;95.79;100497.63;6092384;23;20085;-68
2023/07/21 06:23:06;;;;;;;8.85;8.05;;;;;;;18.91;92.43;100432.44;6090915;23;20566;-68
2023/07/21 06:25:33;;;;;;;10.82;9.80;;;;;;;19.78;88.31;100443.91;6097289;23;20092;-69
2023/07/21 06:27:59;;;;;;;9.82;8.43;;;;;;;19.97;85.32;100424.38;6112376;23;20030;-68
2023/07/21 06:30:26;;;;;;;9.88;8.95;;;;;;;20.27;82.35;100402.72;6089818;23;20045;-70
2023/07/21 06:32:52;;;;;;;9.50;8.70;;;;;;;20.40;80.12;100370.38;6095020;23;20025;-69
2023/07/21 06:35:18;;;;;;;11.23;9.27;;;;;;;19.90;79.94;100310.41;6096347;23;20791;-68
2023/07/21 06:37:45;;;;;;;10.15;9.15;;;;;;;19.28;81.62;100350.06;6093867;23;20018;-68
2023/07/21 06:40:11;;;;;;;10.82;8.77;;;;;;;19.15;84.50;100386.78;6104709;23;20394;-69
2023/07/21 06:42:43;;;;;;;10.68;9.68;;;;;;;19.29;83.60;100372.19;6115509;23;20049;-68
2023/07/21 06:45:10;;;;;;;10.40;8.85;;;;;;;19.41;85.13;100402.13;6092410;23;20271;-68
2023/07/21 06:47:37;;;;;;;10.65;9.45;;;;;;;19.22;83.48;100329.34;6054105;23;20077;-68
2023/07/21 06:50:04;;;;;;;9.38;8.65;;;;;;;19.42;83.40;100340.75;6092605;23;20096;-69
2023/07/21 06:52:31;;;;;;;12.88;9.73;;;;;;;19.65;83.00;100377.66;6096108;23;20694;-68
2023/07/21 06:54:58;;;;;;;9.73;8.82;;;;;;;19.70;81.52;100362.94;6091279;23;20872;-68
2023/07/21 06:57:24;;;;;;;9.68;8.88;;;;;;;19.82;80.33;100347.59;6097943;23;20817;-68
2023/07/21 06:59:50;;;;;;;9.25;8.45;;;;;;;20.01;80.73;100341.34;6110287;23;20022;-69
2023/07/21 07:02:18;;;;;;;10.60;9.13;;;;;;;20.16;80.79;100362.97;6077190;23;20037;-68
2023/07/21 07:04:44;;;;;;;10.52;9.23;;;;;;;19.89;78.45;100311.41;6088235;23;20687;-70
2023/07/21 07:07:11;;;;;;;9.90;8.98;;;;;;;19.45;80.84;100324.50;6107173;23;20009;-69
2023/07/21 07:09:37;;;;;;;10.45;9.25;;;;;;;19.31;80.75;100266.47;6077020;23;20061;-69
2023/07/21 07:12:06;;;;;;;13.68;8.48;;;;;;;19.81;81.82;100332.63;6111636;23;20045;-68
2023/07/21 07:14:32;;;;;;;10.05;9.05;;;;;;;20.47;80.48;100355.47;6112283;23;20037;-69
2023/07/21 07:16:59;;;;;;;10.65;9.57;;;;;;;20.57;76.39;100280.72;6086814;23;20025;-69
2023/07/21 07:19:25;;;;;;;10.30;9.40;;;;;;;20.58;75.91;100279.72;6086549;23;20113;-70
2023/07/21 07:21:54;;;;;;;11.25;9.38;;;;;;;20.30;76.44;100285.16;6109704;23;20110;-68
2023/07/21 07:24:20;;;;;;;16.20;11.07;;;;;;;19.82;77.34;100261.56;6114448;23;20468;-69
2023/07/21 07:26:47;;;;;;;10.38;9.27;;;;;;;20.12;79.64;100326.97;6084724;23;20094;-67
2023/07/21 07:29:15;;;;;;;8.75;7.85;;;;;;;20.62;78.87;100345.09;6110390;23;20642;-67
2023/07/21 07:31:42;;;;;;;10.00;8.55;;;;;;;20.88;75.86;100281.13;6112672;23;20048;-67
2023/07/21 07:34:09;;;;;;;9.70;8.60;;;;;;;20.90;74.07;100256.97;6109011;23;20030;-67
2023/07/21 07:36:35;;;;;;;10.00;9.05;;;;;;;20.66;73.10;100207.81;6107644;23;20128;-68
2023/07/21 07:39:03;;;;;;;10.85;9.63;;;;;;;20.94;70.24;100164.97;6111554;23;20129;-67
2023/07/21 07:41:31;;;;;;;10.50;9.50;;;;;;;20.88;69.48;100144.25;6107972;23;20076;-68
2023/07/21 07:43:57;;;;;;;9.23;8.38;;;;;;;21.39;68.52;100182.47;6111841;23;20063;-68
2023/07/21 07:46:23;;;;;;;10.40;9.40;;;;;;;21.31;66.73;100083.69;6082315;23;20517;-69
2023/07/21 07:48:51;;;;;;;9.93;8.93;;;;;;;21.97;63.67;100091.72;6112678;23;20046;-68
2023/07/21 07:51:22;;;;;;;9.88;8.98;;;;;;;21.37;63.96;100037.66;6107761;23;20115;-69
2023/07/21 07:53:49;;;;;;;10.80;9.60;;;;;;;20.86;63.97;99973.72;6105630;23;20806;-69
2023/07/21 07:56:16;;;;;;;9.27;8.15;;;;;;;21.82;65.10;100124.44;6112307;23;20010;-69
2023/07/21 07:58:42;;;;;;;9.60;8.75;;;;;;;21.10;65.82;100063.63;6110985;23;20108;-69
2023/07/21 08:01:12;;;;;;;11.02;9.35;;;;;;;21.62;64.73;100113.25;6109823;23;20081;-69
2023/07/21 08:03:43;;;;;;;10.20;9.38;;;;;;;21.32;66.80;100150.22;6111931;23;20106;-69
2023/07/21 08:06:11;;;;;;;9.85;8.85;;;;;;;21.39;66.15;100129.06;6050096;23;20010;-70
2023/07/21 08:08:38;;;;;;;10.30;9.30;;;;;;;21.41;65.79;100095.03;6108306;23;20106;-68
2023/07/21 08:11:08;;;;;;;11.68;8.88;;;;;;;21.34;62.60;100007.78;6110073;23;20256;-68
2023/07/21 08:13:35;;;;;;;9.98;9.00;;;;;;;22.00;61.76;100078.03;6112402;23;20114;-69
2023/07/21 08:16:08;;;;;;;9.88;8.98;;;;;;;22.28;60.25;100017.84;6113023;23;20029;-68
2023/07/21 08:18:35;;;;;;;11.18;9.93;;;;;;;22.02;59.43;99961.13;6113459;23;20076;-68
2023/07/21 08:21:22;;;;;;;11.13;9.88;;;;;;;21.12;61.51;99957.56;6090934;23;20096;-69
2023/07/21 08:23:50;;;;;;;10.35;9.35;;;;;;;21.32;64.66;100133.38;6109974;23;20006;-69
2023/07/21 08:26:18;;;;;;;9.45;8.65;;;;;;;21.62;63.57;100139.16;6106892;23;20578;-69
2023/07/21 08:28:44;;;;;;;9.57;8.80;;;;;;;21.55;65.26;100202.19;6106800;23;20159;-68
2023/07/21 08:31:11;;;;;;;11.68;10.48;;;;;;;21.28;63.87;100129.38;6113765;23;20017;-68
2023/07/21 08:33:39;;;;;;;9.90;8.90;;;;;;;20.88;65.35;100141.59;6113744;23;20025;-67
2023/07/21 08:36:05;;;;;;;9.02;8.20;;;;;;;21.59;63.83;100174.19;6106564;23;20026;-68
2023/07/21 08:38:35;;;;;;;9.98;8.95;;;;;;;21.30;62.69;100114.03;6109817;23;20100;-67
2023/07/21 08:41:05;;;;;;;8.65;7.65;;;;;;;21.77;62.69;100179.38;6109252;23;20033;-67
2023/07/21 08:43:31;;;;;;;9.70;8.70;;;;;;;21.89;62.01;100136.16;6087203;23;20022;-68
2023/07/21 08:46:00;;;;;;;9.82;8.75;;;;;;;22.33;59.63;100107.38;6107492;23;20029;-68
2023/07/21 08:48:28;;;;;;;9.05;8.32;;;;;;;21.67;61.48;100072.72;6112125;23;20029;-68
2023/07/21 08:50:55;;;;;;;9.57;8.77;;;;;;;21.01;61.19;100026.44;6109857;23;20084;-68
2023/07/21 08:53:26;;;;;;;9.55;8.70;;;;;;;21.57;63.15;100200.22;6089797;23;20448;-68
2023/07/21 08:55:57;;;;;;;8.82;8.05;;;;;;;20.99;59.89;100015.06;6098872;23;20050;-68
2023/07/21 08:58:24;;;;;;;8.18;7.53;;;;;;;20.77;61.92;100104.53;6113245;23;20030;-68
2023/07/21 09:00:54;;;;;;;7.10;6.60;;;;;;;21.17;62.04;100133.19;6109343;23;20021;-68
2023/07/21 09:03:22;;;;;;;7.40;6.90;;;;;;;22.16;59.88;100150.16;6084620;23;20026;-69
2023/07/21 09:05:50;;;;;;;7.65;7.05;;;;;;;22.55;58.88;100152.13;6109522;23;20710;-68
2023/07/21 09:08:21;;;;;;;7.95;7.25;;;;;;;22.96;56.48;100111.00;6112360;23;20025;-68
2023/07/21 09:10:47;;;;;;;8.32;7.63;;;;;;;23.17;55.91;100084.47;6105038;23;20038;-68
2023/07/21 09:13:16;;;;;;;8.02;7.43;;;;;;;22.85;57.13;100134.47;6110636;23;20009;-69
2023/07/21 09:15:57;;;;;;;8.27;7.68;;;;;;;22.66;56.41;100031.38;6111051;23;20902;-69
2023/07/21 09:18:25;;;;;;;7.60;7.10;;;;;;;22.79;56.26;100100.38;6111314;23;20171;-68
2023/07/21 09:20:54;;;;;;;7.60;6.90;;;;;;;22.63;54.43;99991.63;6115700;23;20040;-67
2023/07/21 09:23:21;;;;;;;9.18;8.30;;;;;;;22.64;54.68;99979.91;6082578;23;20034;-67
2023/07/21 09:25:57;;;;;;;7.95;6.85;;;;;;;23.02;53.69;100014.00;6113595;23;20030;-68
2023/07/21 09:28:44;;;;;;;7.57;6.97;;;;;;;22.90;52.62;99987.59;6113696;23;20039;-67
2023/07/21 09:31:12;;;;;;;9.60;6.72;;;;;;;23.04;53.71;100076.19;6110455;23;20476;-68
2023/07/21 09:33:45;;;;;;;6.75;6.35;;;;;;;22.98;53.42;100048.25;6114074;23;20783;-67
2023/07/21 09:36:15;;;;;;;7.10;6.60;;;;;;;23.16;52.74;100015.06;6115308;23;20037;-67
2023/07/21 09:38:43;;;;;;;7.60;7.10;;;;;;;22.98;52.76;100042.91;6113494;23;20024;-67
2023/07/21 09:41:11;;;;;;;7.05;6.55;;;;;;;23.06;52.39;100032.19;6081103;23;20133;-67
2023/07/21 09:43:38;;;;;;;7.50;7.00;;;;;;;22.74;54.47;100080.50;6106334;23;20041;-68
2023/07/21 09:46:07;;;;;;;7.80;7.20;;;;;;;22.57;53.78;100059.19;6085583;23;20030;-68
2023/07/21 09:48:40;;;;;;;8.15;7.55;;;;;;;22.84;52.36;100014.25;6107930;23;20052;-69
2023/07/21 09:51:08;;;;;;;8.48;7.78;;;;;;;22.99;51.85;99983.03;6090012;23;20033;-68
2023/07/21 09:53:39;;;;;;;7.47;6.97;;;;;;;23.06;53.11;100069.66;6113061;23;20060;-68
2023/07/21 09:56:11;;;;;;;7.80;7.20;;;;;;;22.28;53.32;99985.75;6111692;23;20034;-68
2023/07/21 09:59:00;;;;;;;7.97;7.30;;;;;;;23.13;52.56;100063.59;6113956;23;20030;-69
2023/07/21 10:01:29;;;;;;;7.97;7.18;;;;;;;23.84;52.17;100115.16;6108556;23;20054;-69
2023/07/21 10:03:58;;;;;;;8.15;7.55;;;;;;;23.88;51.08;100071.72;6113283;23;20018;-69
2023/07/21 10:06:25;;;;;;;8.30;7.70;;;;;;;23.28;50.58;99920.75;6088195;23;20085;-67
2023/07/21 10:08:52;;;;;;;7.85;7.32;;;;;;;23.18;53.26;100112.09;6114977;23;20086;-68
2023/07/21 10:11:19;;;;;;;8.52;7.72;;;;;;;23.26;53.59;100110.19;6113232;23;20068;-69
2023/07/21 10:13:47;;;;;;;9.90;7.97;;;;;;;23.82;50.75;100050.19;6115818;23;20663;-68
2023/07/21 10:16:14;;;;;;;8.40;7.70;;;;;;;23.82;49.83;99997.41;6110191;23;20050;-68
2023/07/21 10:19:00;;;;;;;8.52;7.47;;;;;;;23.48;51.16;100028.19;6113905;23;20046;-69
2023/07/21 10:21:31;;;;;;;7.88;7.25;;;;;;;23.80;51.53;100098.59;6113431;23;20041;-68
2023/07/21 10:24:02;;;;;;;6.97;6.50;;;;;;;24.15;51.52;100125.72;6111179;23;20025;-68
2023/07/21 10:26:30;;;;;;;9.30;6.95;;;;;;;24.36;48.64;100006.19;6113906;23;20085;-68
2023/07/21 10:29:15;;;;;;;8.18;7.35;;;;;;;24.28;47.64;99911.41;6114376;23;20626;-68
2023/07/21 10:31:51;;;;;;;8.52;7.63;;;;;;;23.98;48.66;99958.06;6111558;23;20037;-67
2023/07/21 10:34:18;;;;;;;7.55;7.05;;;;;;;24.01;49.05;100003.25;6115639;23;20025;-67
2023/07/21 10:36:53;;;;;;;7.43;6.88;;;;;;;24.12;50.05;100053.72;6110765;23;20490;-68
2023/07/21 10:39:23;;;;;;;7.07;6.47;;;;;;;21.88;49.42;99717.75;6114981;23;20108;-67
2023/07/21 10:41:51;;;;;;;8.20;6.72;;;;;;;23.52;49.87;99983.13;6114781;23;20025;-67
2023/07/21 10:44:18;;;;;;;7.22;6.72;;;;;;;23.19;51.10;100009.34;6116679;23;20025;-68
2023/07/21 10:46:47;;;;;;;7.65;6.95;;;;;;;23.59;50.64;100074.28;6109341;23;20031;-69
2023/07/21 10:49:16;;;;;;;7.05;6.55;;;;;;;23.44;49.38;99989.38;6112422;23;20476;-68
2023/07/21 10:51:47;;;;;;;7.05;6.60;;;;;;;23.57;49.92;100030.78;6110073;23;20037;-67
2023/07/21 10:54:14;;;;;;;6.95;6.45;;;;;;;23.70;49.16;100020.28;6119311;23;20027;-68
2023/07/21 10:56:46;;;;;;;7.97;7.30;;;;;;;23.63;46.34;99827.31;6114381;23;20013;-69
2023/07/21 10:59:14;;;;;;;7.00;6.50;;;;;;;24.11;47.89;99998.44;6112253;23;20036;-69
2023/07/21 11:01:51;;;;;;;7.00;6.60;;;;;;;24.27;46.46;99933.88;6113749;23;20033;-68
2023/07/21 11:04:20;;;;;;;6.90;6.30;;;;;;;23.78;46.20;99880.91;6068708;23;20030;-68
2023/07/21 11:06:58;;;;;;;7.30;6.60;;;;;;;24.46;45.93;99988.78;6110655;23;20076;-68
2023/07/21 11:09:26;;;;;;;6.95;6.50;;;;;;;24.35;45.74;99938.31;6114809;23;20188;-68
2023/07/21 11:11:55;;;;;;;7.05;6.45;;;;;;;24.56;45.61;99929.50;6093362;23;20499;-68
2023/07/21 11:14:26;;;;;;;6.70;6.20;;;;;;;24.57;45.67;99962.53;6117146;23;20404;-69
2023/07/21 11:17:03;;;;;;;7.05;6.18;;;;;;;24.70;45.18;99962.66;6110517;23;20033;-68
2023/07/21 11:19:33;;;;;;;6.80;6.40;;;;;;;24.62;43.69;99840.19;6077436;23;20037;-68
2023/07/21 11:22:00;;;;;;;7.22;6.40;;;;;;;24.74;45.10;99952.41;6089609;23;20019;-68